Time;durP1;ratioP1;P1;durP2;ratioP2;P2;SDS_P1;SDS_P2;PMS_P1;PMS_P2;Temp;Humidity;BMP_temperature;BMP_pressure;BME280_temperature;BME280_humidity;BME280_pressure;Samples;Min_cycle;Max_cycle;Signal;HPM_P1;HPM_P2
2022/01/23 00:02:12;;;;;;;427.90;407.23;;;6.90;99.90;;;;;;4351305;33;20180;-62
2022/01/23 00:04:40;;;;;;;450.77;429.00;;;6.90;99.90;;;;;;4353686;33;20711;-61
2022/01/23 00:07:10;;;;;;;469.90;447.40;;;6.80;99.90;;;;;;4345398;33;20595;-62
2022/01/23 00:09:39;;;;;;;450.77;428.53;;;6.90;99.90;;;;;;4343852;33;20224;-63
2022/01/23 00:12:11;;;;;;;446.27;424.87;;;6.90;99.90;;;;;;4350773;33;20243;-62
2022/01/23 00:17:25;;;;;;;430.50;410.07;;;6.90;99.90;;;;;;4350173;33;20200;-62
2022/01/23 00:19:54;;;;;;;443.30;422.40;;;6.90;99.90;;;;;;4343436;33;20149;-62
2022/01/23 00:22:24;;;;;;;426.67;407.13;;;7.00;99.90;;;;;;4364876;32;20581;-62
2022/01/23 00:30:25;;;;;;;414.13;394.83;;;7.00;99.90;;;;;;4412095;32;20591;-62
2022/01/23 00:32:58;;;;;;;415.07;395.80;;;7.00;99.90;;;;;;4407479;32;20202;-63
2022/01/23 00:35:28;;;;;;;419.53;399.97;;;7.00;99.90;;;;;;4407363;32;20191;-65
2022/01/23 00:37:55;;;;;;;436.53;416.63;;;7.00;99.90;;;;;;4404738;32;20167;-62
2022/01/23 00:40:24;;;;;;;434.87;414.40;;;6.90;99.90;;;;;;4408369;32;20171;-64
2022/01/23 00:42:53;;;;;;;421.40;401.60;;;7.00;99.90;;;;;;4412736;32;20274;-62
2022/01/23 00:45:32;;;;;;;427.63;407.87;;;7.00;99.90;;;;;;4409026;32;20294;-63
2022/01/23 00:48:04;;;;;;;433.60;413.60;;;7.00;99.90;;;;;;4408249;32;20152;-64
2022/01/23 00:50:33;;;;;;;442.00;421.27;;;6.90;99.90;;;;;;4407991;32;20199;-65
2022/01/23 00:53:01;;;;;;;442.23;421.87;;;6.90;99.90;;;;;;4411234;32;20525;-65
2022/01/23 00:55:28;;;;;;;428.23;408.03;;;6.90;99.90;;;;;;4410588;32;20157;-67
2022/01/23 00:57:55;;;;;;;443.10;422.77;;;7.00;99.90;;;;;;4408509;32;20148;-62
2022/01/23 01:00:23;;;;;;;444.60;423.37;;;7.00;99.90;;;;;;4410050;32;20524;-62
2022/01/23 01:02:50;;;;;;;438.57;418.07;;;6.90;99.90;;;;;;4419808;32;20215;-66
2022/01/23 01:05:19;;;;;;;453.60;432.60;;;6.90;99.90;;;;;;4411963;32;20160;-66
2022/01/23 01:07:48;;;;;;;469.23;446.63;;;6.80;99.90;;;;;;4422720;32;20596;-62
2022/01/23 01:10:21;;;;;;;459.17;437.20;;;6.90;99.90;;;;;;4407482;32;20156;-65
2022/01/23 01:12:55;;;;;;;441.17;420.80;;;6.90;99.90;;;;;;4409986;32;20201;-65
2022/01/23 01:15:39;;;;;;;460.27;438.87;;;6.90;99.90;;;;;;4412307;32;20204;-63
2022/01/23 01:31:57;;;;;;;456.20;434.93;;;6.90;99.90;;;;;;4409157;32;20569;-65
2022/01/23 01:34:32;;;;;;;454.50;433.13;;;6.90;99.90;;;;;;4414908;32;20166;-65
2022/01/23 01:37:01;;;;;;;447.37;426.00;;;6.90;99.90;;;;;;4421573;32;20198;-65
2022/01/23 01:39:32;;;;;;;469.03;446.83;;;6.90;99.90;;;;;;4414931;32;20159;-65
2022/01/23 01:41:59;;;;;;;464.67;442.73;;;6.90;99.90;;;;;;4408106;32;20194;-65
2022/01/23 01:44:26;;;;;;;457.20;435.37;;;6.90;99.90;;;;;;4414683;32;20548;-66
2022/01/23 01:46:53;;;;;;;463.03;441.03;;;6.90;99.90;;;;;;4422283;32;20155;-66
2022/01/23 01:49:27;;;;;;;446.20;425.07;;;6.90;99.90;;;;;;4422486;32;20556;-66
2022/01/23 01:51:54;;;;;;;460.90;438.60;;;6.90;99.90;;;;;;4420848;32;20182;-65
2022/01/23 01:54:28;;;;;;;464.33;442.47;;;6.90;99.90;;;;;;4416538;32;20208;-61
2022/01/23 01:57:05;;;;;;;457.10;434.67;;;6.80;99.90;;;;;;4415969;32;20175;-63
2022/01/23 01:59:47;;;;;;;468.53;445.87;;;6.80;99.90;;;;;;4421912;32;20564;-64
2022/01/23 02:10:45;;;;;;;502.63;477.87;;;6.60;99.90;;;;;;4374258;32;20171;-62
2022/01/23 02:13:15;;;;;;;495.60;471.27;;;6.60;99.90;;;;;;4374435;32;20153;-64
2022/01/23 02:24:46;;;;;;;488.83;464.67;;;6.60;99.90;;;;;;4360793;32;20234;-62
2022/01/23 02:52:05;;;;;;;497.80;473.10;;;6.70;99.90;;;;;;4382687;32;20186;-63
2022/01/23 02:54:53;;;;;;;509.77;484.10;;;6.70;99.90;;;;;;4385502;32;20148;-62
2022/01/23 02:57:38;;;;;;;501.83;476.90;;;6.70;99.90;;;;;;4388784;32;20580;-61
2022/01/23 03:00:12;;;;;;;515.03;489.47;;;6.60;99.90;;;;;;4389888;32;20306;-64
2022/01/23 03:02:44;;;;;;;527.33;500.97;;;6.60;99.90;;;;;;4380568;32;20156;-64
2022/01/23 03:05:22;;;;;;;525.97;498.73;;;6.70;99.90;;;;;;4382378;32;20285;-66
2022/01/23 03:08:03;;;;;;;533.30;506.60;;;6.70;99.90;;;;;;4387247;32;20208;-64
2022/01/23 03:10:36;;;;;;;533.53;506.50;;;6.70;99.90;;;;;;4390036;32;20148;-64
2022/01/23 03:16:09;;;;;;;526.80;500.23;;;6.70;99.90;;;;;;4390413;32;20546;-65
2022/01/23 03:24:14;;;;;;;499.40;474.63;;;6.70;99.90;;;;;;4391746;32;20164;-65
2022/01/23 03:26:54;;;;;;;495.93;471.27;;;6.80;99.90;;;;;;4390036;32;20144;-65
2022/01/23 03:29:23;;;;;;;496.30;471.60;;;6.80;99.90;;;;;;4387141;32;20218;-62
2022/01/23 03:32:11;;;;;;;536.67;509.67;;;6.80;99.90;;;;;;4379081;32;20149;-62
2022/01/23 03:34:38;;;;;;;502.17;477.33;;;6.90;99.90;;;;;;4387513;32;20152;-63
2022/01/23 03:37:08;;;;;;;502.93;477.83;;;6.90;99.90;;;;;;4387456;32;20171;-63
2022/01/23 03:39:37;;;;;;;499.13;474.50;;;6.90;99.90;;;;;;4386242;32;20216;-63
2022/01/23 03:42:06;;;;;;;507.67;482.43;;;6.90;99.90;;;;;;4378175;32;20208;-61
2022/01/23 03:44:37;;;;;;;504.73;479.33;;;6.90;99.90;;;;;;4392432;32;20229;-65
2022/01/23 03:47:20;;;;;;;530.20;503.43;;;6.90;99.90;;;;;;4406254;32;20172;-62
2022/01/23 03:49:48;;;;;;;508.50;483.13;;;6.90;99.90;;;;;;4404525;32;20570;-65
2022/01/23 03:52:15;;;;;;;539.80;512.90;;;6.90;99.90;;;;;;4418878;32;20168;-62
2022/01/23 03:54:42;;;;;;;539.90;512.77;;;6.90;99.90;;;;;;4421241;32;20142;-61
2022/01/23 03:57:11;;;;;;;539.27;511.43;;;6.90;99.90;;;;;;4409620;32;20627;-64
2022/01/23 03:59:38;;;;;;;522.37;496.43;;;6.90;99.90;;;;;;4405677;32;20203;-63
2022/01/23 04:02:06;;;;;;;533.20;506.43;;;6.80;99.90;;;;;;4408404;32;20208;-63
2022/01/23 04:04:39;;;;;;;532.40;505.53;;;6.90;99.90;;;;;;4405451;32;20203;-65
2022/01/23 04:07:08;;;;;;;528.13;501.50;;;6.90;99.90;;;;;;4407034;32;20161;-63
2022/01/23 04:09:37;;;;;;;515.13;488.17;;;6.90;99.90;;;;;;4420729;32;20166;-62
2022/01/23 04:12:06;;;;;;;521.07;494.23;;;6.90;99.90;;;;;;4413283;32;20151;-64
2022/01/23 04:14:36;;;;;;;537.93;510.47;;;6.90;99.90;;;;;;4411604;32;20564;-63
2022/01/23 04:17:38;;;;;;;537.80;510.13;;;6.90;99.90;;;;;;4409878;32;20152;-63
2022/01/23 04:20:21;;;;;;;525.83;499.23;;;6.90;99.90;;;;;;4408470;32;20548;-63
2022/01/23 04:33:51;;;;;;;548.30;519.73;;;6.60;99.90;;;;;;4411650;32;20167;-64
2022/01/23 05:01:16;;;;;;;555.20;527.07;;;6.60;99.90;;;;;;4376106;32;20171;-64
2022/01/23 05:06:45;;;;;;;568.20;539.30;;;6.60;99.90;;;;;;4360680;33;20165;-62
2022/01/23 05:09:12;;;;;;;565.50;536.80;;;6.70;99.90;;;;;;4363376;32;20153;-65
2022/01/23 05:11:47;;;;;;;549.77;522.00;;;6.70;99.90;;;;;;4360704;33;20212;-62
2022/01/23 05:14:15;;;;;;;523.33;497.27;;;6.70;99.90;;;;;;4361339;32;20599;-65
2022/01/23 05:16:41;;;;;;;544.60;517.17;;;6.80;99.90;;;;;;4360086;32;20192;-62
2022/01/23 05:19:10;;;;;;;566.60;537.83;;;6.60;99.90;;;;;;4364353;32;20224;-62
2022/01/23 05:24:36;;;;;;;569.40;540.20;;;6.40;99.90;;;;;;4411298;31;2239805;-64
2022/01/23 05:27:07;;;;;;;579.23;549.07;;;6.40;99.90;;;;;;4463757;32;20598;-63
2022/01/23 05:29:34;;;;;;;542.47;514.83;;;6.60;99.90;;;;;;4458758;32;20592;-66
2022/01/23 05:32:01;;;;;;;573.80;544.50;;;6.60;99.90;;;;;;4449780;32;20136;-62
2022/01/23 05:34:27;;;;;;;549.20;521.30;;;6.60;99.90;;;;;;4449390;32;20149;-61
2022/01/23 05:36:54;;;;;;;528.43;502.37;;;6.70;99.90;;;;;;4450224;32;20162;-64
2022/01/23 05:39:24;;;;;;;539.40;512.77;;;6.80;99.90;;;;;;4449246;32;20213;-64
2022/01/23 05:41:58;;;;;;;524.10;497.87;;;6.70;99.90;;;;;;4449383;32;20139;-64
2022/01/23 05:44:25;;;;;;;521.13;495.70;;;6.70;99.90;;;;;;4459202;32;20138;-65
2022/01/23 05:46:53;;;;;;;527.20;501.00;;;6.70;99.90;;;;;;4456051;32;20562;-65
2022/01/23 05:49:20;;;;;;;528.13;502.00;;;6.70;99.90;;;;;;4462866;32;20161;-65
2022/01/23 05:51:46;;;;;;;499.50;475.47;;;6.70;99.90;;;;;;4464782;32;20150;-64
2022/01/23 05:54:13;;;;;;;526.50;500.67;;;6.70;99.90;;;;;;4464715;32;20669;-64
2022/01/23 05:56:40;;;;;;;501.83;476.67;;;6.70;99.90;;;;;;4462044;32;20197;-64
2022/01/23 05:59:09;;;;;;;503.80;478.40;;;6.70;99.90;;;;;;4455644;32;20180;-64
2022/01/23 06:01:35;;;;;;;494.60;470.37;;;6.70;99.90;;;;;;4449720;32;20164;-66
2022/01/23 06:04:02;;;;;;;513.07;487.97;;;6.70;99.90;;;;;;4449441;32;20189;-65
2022/01/23 06:06:29;;;;;;;505.93;481.50;;;6.70;99.90;;;;;;4451320;32;20153;-66
2022/01/23 06:08:56;;;;;;;485.20;461.47;;;6.70;99.90;;;;;;4448898;32;20142;-66
2022/01/23 06:11:22;;;;;;;513.60;488.87;;;6.70;99.90;;;;;;4457110;32;20178;-66
2022/01/23 06:13:49;;;;;;;504.80;479.50;;;6.70;99.90;;;;;;4464676;32;20193;-63
2022/01/23 06:16:17;;;;;;;500.53;476.27;;;6.70;99.90;;;;;;4464470;32;20146;-65
2022/01/23 06:18:45;;;;;;;508.80;484.00;;;6.60;99.90;;;;;;4463382;32;20169;-63
2022/01/23 06:21:16;;;;;;;499.73;475.47;;;6.60;99.90;;;;;;4455147;32;20436;-64
2022/01/23 06:23:43;;;;;;;517.57;492.07;;;6.60;99.90;;;;;;4448385;32;20227;-66
2022/01/23 06:26:13;;;;;;;516.17;490.50;;;6.60;99.90;;;;;;4448681;32;20180;-66
2022/01/23 06:28:44;;;;;;;498.57;474.03;;;6.60;99.90;;;;;;4449315;32;20214;-66
2022/01/23 06:31:11;;;;;;;491.60;467.10;;;6.60;99.90;;;;;;4449709;32;20173;-65
2022/01/23 06:33:39;;;;;;;514.33;488.30;;;6.60;99.90;;;;;;4448004;32;20163;-67
2022/01/23 06:36:06;;;;;;;492.47;468.23;;;6.60;99.90;;;;;;4437993;32;20127;-66
2022/01/23 06:38:33;;;;;;;497.33;472.93;;;6.60;99.90;;;;;;4438176;32;20242;-64
2022/01/23 06:41:00;;;;;;;481.13;457.30;;;6.60;99.90;;;;;;4441407;32;20143;-63
2022/01/23 06:43:27;;;;;;;513.93;488.10;;;6.60;99.90;;;;;;4438358;32;20164;-63
2022/01/23 06:45:54;;;;;;;513.43;487.70;;;6.60;99.90;;;;;;4440007;32;20163;-66
2022/01/23 06:48:20;;;;;;;503.60;478.60;;;6.60;99.90;;;;;;4453486;32;20139;-65
2022/01/23 06:50:50;;;;;;;521.80;495.57;;;6.50;99.90;;;;;;4451336;32;20246;-66
2022/01/23 06:53:16;;;;;;;496.57;472.23;;;6.60;99.90;;;;;;4452867;32;20203;-63
2022/01/23 06:55:43;;;;;;;494.83;469.70;;;6.60;99.90;;;;;;4453443;32;20139;-65
2022/01/23 06:58:22;;;;;;;519.70;494.07;;;6.60;99.90;;;;;;4444379;32;20225;-66
2022/01/23 07:01:04;;;;;;;487.77;463.13;;;6.60;99.90;;;;;;4441685;32;20198;-63
2022/01/23 07:03:36;;;;;;;501.80;477.47;;;6.60;99.90;;;;;;4444784;32;20143;-64
2022/01/23 07:09:41;;;;;;;491.03;466.57;;;6.50;99.90;;;;;;4439491;32;20473;-62
2022/01/23 07:12:25;;;;;;;489.93;466.10;;;6.50;99.90;;;;;;4442504;32;20178;-63
2022/01/23 07:14:57;;;;;;;485.90;461.37;;;6.50;99.90;;;;;;4438026;32;20924;-62
2022/01/23 07:17:23;;;;;;;509.47;483.57;;;6.60;99.90;;;;;;4443341;32;20171;-65
2022/01/23 07:20:15;;;;;;;511.93;486.23;;;6.60;99.90;;;;;;4445597;32;20162;-64
2022/01/23 07:23:23;;;;;;;488.17;463.77;;;6.60;99.90;;;;;;4382713;32;20240;-66
2022/01/23 07:26:33;;;;;;;500.67;475.13;;;6.60;99.90;;;;;;4344602;33;20591;-62
2022/01/23 07:29:06;;;;;;;491.33;466.87;;;6.60;99.90;;;;;;4343349;33;20167;-62
2022/01/23 07:31:56;;;;;;;497.20;472.33;;;6.60;99.90;;;;;;4343790;33;20318;-63
2022/01/23 07:34:36;;;;;;;466.20;443.23;;;6.60;99.90;;;;;;4344025;33;20137;-62
2022/01/23 07:37:10;;;;;;;511.97;486.17;;;6.60;99.90;;;;;;4342790;33;20179;-63
2022/01/23 07:42:44;;;;;;;483.03;458.67;;;6.60;99.90;;;;;;4311540;33;20173;-62
2022/01/23 07:45:13;;;;;;;493.30;468.57;;;6.60;99.90;;;;;;4313474;33;20157;-62
2022/01/23 07:47:40;;;;;;;516.53;490.43;;;6.60;99.90;;;;;;4313934;33;20178;-62
2022/01/23 07:50:08;;;;;;;502.23;477.07;;;6.60;99.90;;;;;;4314371;33;20251;-62
2022/01/23 07:52:36;;;;;;;518.10;492.33;;;6.60;99.90;;;;;;4314685;33;20598;-64
2022/01/23 07:55:06;;;;;;;511.40;486.17;;;6.60;99.90;;;;;;4314747;33;20251;-62
2022/01/23 07:57:33;;;;;;;517.80;491.80;;;6.60;99.90;;;;;;4312827;33;20272;-62
2022/01/23 08:00:01;;;;;;;539.87;512.00;;;6.60;99.90;;;;;;4346533;32;20587;-65
2022/01/23 08:02:27;;;;;;;535.50;507.73;;;6.50;99.90;;;;;;4384136;32;20159;-62
2022/01/23 08:04:57;;;;;;;556.97;527.57;;;6.50;99.90;;;;;;4412172;32;21432;-63
2022/01/23 08:07:31;;;;;;;560.07;530.20;;;6.60;99.90;;;;;;4434567;32;20198;-65
2022/01/23 08:09:59;;;;;;;535.90;508.30;;;6.60;99.90;;;;;;4441696;32;20547;-64
2022/01/23 08:12:29;;;;;;;534.50;507.03;;;6.70;99.90;;;;;;4440924;32;20138;-65
2022/01/23 08:14:57;;;;;;;509.23;483.67;;;6.70;99.90;;;;;;4442916;32;20162;-66
2022/01/23 08:17:24;;;;;;;513.57;487.23;;;6.70;99.90;;;;;;4441116;32;20350;-66
2022/01/23 08:19:53;;;;;;;527.67;500.93;;;6.70;99.90;;;;;;4442338;32;20134;-66
2022/01/23 08:22:20;;;;;;;529.30;502.47;;;6.80;99.90;;;;;;4438799;32;20229;-62
2022/01/23 08:24:47;;;;;;;525.37;498.60;;;6.80;99.90;;;;;;4437577;32;20499;-63
2022/01/23 08:27:14;;;;;;;533.13;505.83;;;6.80;99.90;;;;;;4438138;32;20159;-64
2022/01/23 08:29:43;;;;;;;516.53;490.03;;;6.90;99.90;;;;;;4439103;32;20147;-63
2022/01/23 08:32:11;;;;;;;532.70;505.47;;;6.90;99.90;;;;;;4439615;32;20222;-63
2022/01/23 08:34:40;;;;;;;528.43;501.53;;;6.90;99.90;;;;;;4442173;32;20147;-63
2022/01/23 08:37:08;;;;;;;519.87;493.27;;;6.90;99.90;;;;;;4438522;32;20497;-63
2022/01/23 08:39:36;;;;;;;510.93;484.90;;;7.00;99.90;;;;;;4438017;32;20293;-65
2022/01/23 08:42:04;;;;;;;517.53;491.53;;;7.00;99.90;;;;;;4441060;32;20170;-64
2022/01/23 08:44:31;;;;;;;500.67;475.97;;;7.10;99.90;;;;;;4439291;32;20460;-65
2022/01/23 08:47:02;;;;;;;495.53;471.33;;;7.10;99.90;;;;;;4439663;32;20143;-67
2022/01/23 08:49:30;;;;;;;505.47;479.87;;;7.10;99.90;;;;;;4438553;32;20167;-63
2022/01/23 08:51:58;;;;;;;496.93;471.97;;;7.10;99.90;;;;;;4445123;32;20209;-62
2022/01/23 08:54:27;;;;;;;519.00;492.93;;;7.10;99.90;;;;;;4440414;32;20166;-63
2022/01/23 08:56:56;;;;;;;515.13;489.67;;;7.20;99.90;;;;;;4440994;32;20203;-62
2022/01/23 08:59:24;;;;;;;519.67;493.73;;;7.20;99.90;;;;;;4441798;32;20167;-61
2022/01/23 09:01:51;;;;;;;493.53;468.70;;;7.30;99.90;;;;;;4443091;32;20501;-63
2022/01/23 09:04:20;;;;;;;490.83;466.70;;;7.30;99.90;;;;;;4437751;32;20526;-63
2022/01/23 09:06:47;;;;;;;506.57;481.33;;;7.40;99.90;;;;;;4443524;32;20143;-63
2022/01/23 09:09:19;;;;;;;506.00;480.97;;;7.40;99.90;;;;;;4442059;32;20182;-62
2022/01/23 09:11:57;;;;;;;508.43;482.87;;;7.40;99.90;;;;;;4443323;32;20143;-64
2022/01/23 09:14:25;;;;;;;499.83;474.70;;;7.40;99.90;;;;;;4440792;32;20165;-65
2022/01/23 09:16:55;;;;;;;481.47;457.57;;;7.50;99.90;;;;;;4441582;32;20889;-63
2022/01/23 09:19:24;;;;;;;478.33;455.27;;;7.40;99.90;;;;;;4441326;32;20561;-66
2022/01/23 09:21:52;;;;;;;475.47;452.83;;;7.50;99.90;;;;;;4444172;32;20142;-65
2022/01/23 09:24:25;;;;;;;477.57;454.37;;;7.50;99.90;;;;;;4439833;32;20206;-64
2022/01/23 09:26:55;;;;;;;495.57;471.10;;;7.60;99.90;;;;;;4441630;32;20215;-63
2022/01/23 09:29:31;;;;;;;482.87;459.87;;;7.70;99.90;;;;;;4444214;32;20255;-66
2022/01/23 09:32:00;;;;;;;478.33;454.87;;;7.80;99.90;;;;;;4443898;32;20137;-62
2022/01/23 09:34:32;;;;;;;484.87;460.93;;;7.80;99.90;;;;;;4439819;32;20554;-64
2022/01/23 09:37:02;;;;;;;483.13;459.60;;;7.80;99.90;;;;;;4441386;32;20229;-63
2022/01/23 09:39:31;;;;;;;479.07;455.63;;;7.80;99.90;;;;;;4441057;32;20478;-62
2022/01/23 09:42:00;;;;;;;463.53;441.13;;;7.90;99.90;;;;;;4440404;32;20162;-62
2022/01/23 09:44:31;;;;;;;456.47;434.30;;;7.90;99.90;;;;;;4441347;32;20523;-62
2022/01/23 09:46:58;;;;;;;461.47;439.20;;;7.90;99.90;;;;;;4442838;32;20159;-63
2022/01/23 09:49:32;;;;;;;456.77;434.97;;;8.00;99.90;;;;;;4443372;32;20143;-62
2022/01/23 09:52:02;;;;;;;453.83;432.10;;;8.00;99.90;;;;;;4442480;32;20623;-62
2022/01/23 09:54:35;;;;;;;454.63;433.03;;;8.20;99.90;;;;;;4439648;32;20293;-62
2022/01/23 09:57:02;;;;;;;448.07;426.40;;;8.20;99.90;;;;;;4440407;32;20158;-63
2022/01/23 09:59:31;;;;;;;461.50;439.50;;;8.20;99.90;;;;;;4443042;32;20145;-63
2022/01/23 10:01:58;;;;;;;444.73;423.47;;;8.20;99.90;;;;;;4442175;32;20143;-62
2022/01/23 10:04:28;;;;;;;454.70;433.27;;;8.30;99.90;;;;;;4443981;32;20209;-62
2022/01/23 10:06:56;;;;;;;471.00;448.40;;;8.30;99.90;;;;;;4440955;32;20143;-63
2022/01/23 10:09:28;;;;;;;477.87;455.07;;;8.40;99.90;;;;;;4451540;32;20152;-62
2022/01/23 10:11:55;;;;;;;487.60;463.97;;;8.50;99.90;;;;;;4453836;32;20131;-62
2022/01/23 10:14:23;;;;;;;492.17;468.27;;;8.50;99.90;;;;;;4452561;32;20525;-63
2022/01/23 10:16:50;;;;;;;490.20;466.40;;;8.60;99.90;;;;;;4442184;32;20196;-62
2022/01/23 10:19:18;;;;;;;478.67;455.40;;;8.60;99.90;;;;;;4441902;32;20578;-62
2022/01/23 10:21:47;;;;;;;473.77;451.10;;;8.60;99.90;;;;;;4444025;32;20177;-62
2022/01/23 10:24:14;;;;;;;464.90;442.67;;;8.70;99.90;;;;;;4443738;32;20163;-62
2022/01/23 10:26:46;;;;;;;457.53;436.07;;;8.70;99.90;;;;;;4444432;32;20186;-63
2022/01/23 10:29:20;;;;;;;450.17;429.20;;;8.60;99.90;;;;;;4449550;32;20141;-62
2022/01/23 10:32:05;;;;;;;442.03;420.77;;;8.60;99.90;;;;;;4438890;32;20548;-62
2022/01/23 10:34:50;;;;;;;465.63;443.40;;;8.60;99.90;;;;;;4440064;32;20166;-62
2022/01/23 10:37:37;;;;;;;439.43;418.63;;;8.70;99.90;;;;;;4443068;32;20153;-62
2022/01/23 10:40:10;;;;;;;450.73;429.27;;;8.80;99.90;;;;;;4444699;32;20242;-62
2022/01/23 10:43:07;;;;;;;448.83;427.63;;;8.90;99.90;;;;;;4438987;32;20578;-62
2022/01/23 10:48:37;;;;;;;435.27;414.97;;;8.90;99.90;;;;;;4442948;32;20229;-63
2022/01/23 10:51:16;;;;;;;439.13;418.50;;;8.90;99.90;;;;;;4448651;32;20551;-62
2022/01/23 10:54:08;;;;;;;449.20;428.20;;;9.00;99.90;;;;;;4444887;32;20529;-63
2022/01/23 10:56:39;;;;;;;455.93;434.53;;;9.10;99.90;;;;;;4442776;32;20240;-62
2022/01/23 10:59:08;;;;;;;450.07;428.93;;;9.10;99.90;;;;;;4441289;32;20146;-62
2022/01/23 11:01:38;;;;;;;458.80;436.90;;;9.10;99.90;;;;;;4444197;32;20227;-62
2022/01/23 11:04:11;;;;;;;462.63;440.77;;;9.20;99.90;;;;;;4441863;32;20165;-62
2022/01/23 11:07:00;;;;;;;468.97;446.67;;;9.30;99.90;;;;;;4443314;32;20177;-62
2022/01/23 11:09:33;;;;;;;447.67;426.50;;;9.30;99.90;;;;;;4388342;32;20217;-63
2022/01/23 11:12:12;;;;;;;457.53;435.63;;;9.40;99.90;;;;;;4386392;32;20560;-62
2022/01/23 11:17:25;;;;;;;453.70;432.53;;;9.50;99.90;;;;;;4388604;32;20202;-63
2022/01/23 11:19:58;;;;;;;455.80;434.13;;;9.60;99.90;;;;;;4388459;32;20210;-62
2022/01/23 11:22:28;;;;;;;458.17;436.13;;;9.60;99.90;;;;;;4387749;32;20172;-63
2022/01/23 11:25:07;;;;;;;445.67;424.87;;;9.60;99.90;;;;;;4384922;32;20237;-63
2022/01/23 11:27:39;;;;;;;442.40;421.77;;;9.60;99.90;;;;;;4385806;32;20148;-62
2022/01/23 11:30:09;;;;;;;441.53;420.77;;;9.70;99.90;;;;;;4389687;32;20201;-62
2022/01/23 11:32:39;;;;;;;442.77;421.53;;;9.70;99.90;;;;;;4386976;32;20171;-63
2022/01/23 11:35:12;;;;;;;436.60;416.13;;;9.60;99.90;;;;;;4388397;32;20397;-62
2022/01/23 11:37:45;;;;;;;447.30;426.33;;;9.70;99.90;;;;;;4387953;32;20558;-63
2022/01/23 11:40:32;;;;;;;445.10;423.80;;;9.80;99.90;;;;;;4386388;32;20152;-63
2022/01/23 11:54:08;;;;;;;390.87;372.90;;;9.90;99.90;;;;;;4401840;32;20149;-63
2022/01/23 11:56:43;;;;;;;424.40;404.97;;;9.90;99.90;;;;;;4404260;32;20201;-63
2022/01/23 11:59:25;;;;;;;426.33;406.57;;;10.00;99.90;;;;;;4400902;32;20152;-63
2022/01/23 12:02:16;;;;;;;407.17;388.27;;;10.00;99.90;;;;;;4391576;32;20231;-63
2022/01/23 12:04:47;;;;;;;373.60;356.40;;;10.10;99.90;;;;;;4402039;32;20217;-63
2022/01/23 12:07:20;;;;;;;409.17;390.37;;;10.10;99.90;;;;;;4402984;32;20154;-63
2022/01/23 12:10:15;;;;;;;406.63;387.80;;;10.10;99.90;;;;;;4391401;32;20189;-63
2022/01/23 12:12:46;;;;;;;417.37;398.07;;;10.00;99.90;;;;;;4341570;33;20547;-63
2022/01/23 12:18:16;;;;;;;389.57;371.90;;;9.80;99.90;;;;;;4343372;33;20199;-62
2022/01/23 12:20:45;;;;;;;425.10;405.43;;;9.90;99.90;;;;;;4339638;33;20297;-63
2022/01/23 12:23:14;;;;;;;427.60;407.80;;;9.90;99.90;;;;;;4343109;33;20312;-63
2022/01/23 12:25:43;;;;;;;414.77;395.77;;;9.90;99.90;;;;;;4344834;33;20163;-62
2022/01/23 12:28:22;;;;;;;424.23;404.70;;;9.80;99.90;;;;;;4342874;33;20259;-63
2022/01/23 12:30:55;;;;;;;412.00;392.80;;;9.80;99.90;;;;;;4349995;32;20171;-62
2022/01/23 12:33:47;;;;;;;409.03;390.17;;;9.90;99.90;;;;;;4385964;32;20582;-63
2022/01/23 12:36:26;;;;;;;405.30;386.63;;;10.00;99.90;;;;;;4385091;32;20210;-64
2022/01/23 12:38:58;;;;;;;423.90;404.33;;;10.00;99.90;;;;;;4382735;32;20157;-62
2022/01/23 12:41:32;;;;;;;401.37;383.00;;;10.00;99.90;;;;;;4384713;32;20231;-62
2022/01/23 12:44:06;;;;;;;418.60;399.37;;;10.00;99.90;;;;;;4382662;32;20193;-64
2022/01/23 12:46:37;;;;;;;430.00;410.10;;;10.00;99.90;;;;;;4379750;32;20234;-62
2022/01/23 12:49:28;;;;;;;426.47;406.43;;;10.00;99.90;;;;;;4392701;32;20174;-64
2022/01/23 12:52:15;;;;;;;418.33;399.00;;;10.00;99.90;;;;;;4413284;32;20258;-63
2022/01/23 12:55:00;;;;;;;418.53;399.27;;;10.00;99.90;;;;;;4417841;32;20505;-64
2022/01/23 12:57:37;;;;;;;435.13;414.90;;;9.90;99.90;;;;;;4405322;32;20556;-63
2022/01/23 13:00:10;;;;;;;428.07;408.20;;;9.80;99.90;;;;;;4410995;32;20168;-64
2022/01/23 13:02:43;;;;;;;446.47;425.50;;;9.70;99.90;;;;;;4407712;32;20584;-64
2022/01/23 13:05:16;;;;;;;436.07;415.83;;;9.70;99.90;;;;;;4408727;32;20147;-64
2022/01/23 13:08:04;;;;;;;419.57;400.03;;;9.70;99.90;;;;;;4404840;32;20611;-64
2022/01/23 13:10:53;;;;;;;418.57;399.43;;;9.70;99.90;;;;;;4407952;32;20231;-65
2022/01/23 13:13:35;;;;;;;416.50;397.10;;;9.70;99.90;;;;;;4406458;32;20158;-64
2022/01/23 13:30:16;;;;;;;410.77;391.47;;;9.60;99.90;;;;;;4397543;32;20584;-63
2022/01/23 13:32:47;;;;;;;435.27;414.00;;;9.60;99.90;;;;;;4398969;32;20232;-63
2022/01/23 13:35:16;;;;;;;425.13;405.23;;;9.60;99.90;;;;;;4399584;32;20509;-63
2022/01/23 13:37:46;;;;;;;445.33;424.53;;;9.60;99.90;;;;;;4395007;32;20163;-64
2022/01/23 13:40:15;;;;;;;432.57;412.30;;;9.50;99.90;;;;;;4398348;32;20273;-63
2022/01/23 13:51:22;;;;;;;399.93;381.33;;;9.40;99.90;;;;;;4371459;32;21275;-63
2022/01/23 13:54:17;;;;;;;404.60;386.23;;;9.30;99.90;;;;;;4366204;32;20646;-63
2022/01/23 13:59:38;;;;;;;405.37;386.80;;;9.30;99.90;;;;;;4407338;32;20216;-63
2022/01/23 14:02:16;;;;;;;432.90;413.13;;;9.30;99.90;;;;;;4404915;32;20639;-63
2022/01/23 14:04:50;;;;;;;426.50;407.00;;;9.20;99.90;;;;;;4406566;32;20158;-63
2022/01/23 14:07:24;;;;;;;440.57;420.87;;;9.20;99.90;;;;;;4409542;32;20246;-63
2022/01/23 14:10:11;;;;;;;429.60;409.60;;;9.10;99.90;;;;;;4407005;32;20233;-63
2022/01/23 14:12:40;;;;;;;410.80;392.17;;;9.10;99.90;;;;;;4407820;32;20173;-63
2022/01/23 14:15:16;;;;;;;431.87;412.07;;;9.10;99.90;;;;;;4409068;32;20224;-63
2022/01/23 14:17:55;;;;;;;429.40;409.93;;;9.10;99.90;;;;;;4414618;32;20233;-63
2022/01/23 14:20:29;;;;;;;422.30;403.30;;;9.10;99.90;;;;;;4412027;32;20266;-63
2022/01/23 14:23:20;;;;;;;398.50;380.77;;;9.00;99.90;;;;;;4408929;32;20535;-63
2022/01/23 14:26:22;;;;;;;427.77;408.63;;;9.00;99.90;;;;;;4408602;32;20222;-63
2022/01/23 14:28:58;;;;;;;415.73;397.07;;;8.90;99.90;;;;;;4356499;33;20601;-63
2022/01/23 14:31:35;;;;;;;421.73;402.67;;;8.90;99.90;;;;;;4369631;32;20179;-63
2022/01/23 14:34:41;;;;;;;425.03;406.03;;;8.90;99.90;;;;;;4363888;32;20206;-63
2022/01/23 14:37:39;;;;;;;393.90;376.50;;;8.90;99.90;;;;;;4373139;32;20615;-63
2022/01/23 14:40:19;;;;;;;388.87;371.27;;;8.90;99.90;;;;;;4370232;32;20318;-62
2022/01/23 14:43:10;;;;;;;408.60;390.10;;;8.90;99.90;;;;;;4368526;32;20199;-64
2022/01/23 14:45:41;;;;;;;404.87;386.53;;;8.80;99.90;;;;;;4362614;32;20606;-62
2022/01/23 14:48:11;;;;;;;394.63;376.67;;;8.80;99.90;;;;;;4372515;32;20189;-63
2022/01/23 14:50:41;;;;;;;412.57;393.63;;;8.80;99.90;;;;;;4363750;32;20196;-63
2022/01/23 14:53:15;;;;;;;423.03;403.77;;;8.70;99.90;;;;;;4367279;32;20247;-63
2022/01/23 14:55:47;;;;;;;419.63;400.47;;;8.70;99.90;;;;;;4368097;32;20212;-64
2022/01/23 14:58:20;;;;;;;419.37;400.23;;;8.60;99.90;;;;;;4363547;32;20186;-64
2022/01/23 15:00:51;;;;;;;439.97;419.73;;;8.60;99.90;;;;;;4361891;32;20195;-63
2022/01/23 15:03:21;;;;;;;436.90;416.67;;;8.50;99.90;;;;;;4362249;32;20662;-65
2022/01/23 15:05:48;;;;;;;415.93;397.10;;;8.50;99.90;;;;;;4387463;32;20223;-64
2022/01/23 15:08:21;;;;;;;408.23;390.10;;;8.50;99.90;;;;;;4406787;32;20844;-64
2022/01/23 15:10:50;;;;;;;411.63;392.93;;;8.40;99.90;;;;;;4410085;32;20242;-62
2022/01/23 15:13:19;;;;;;;417.07;397.43;;;8.40;99.90;;;;;;4416777;32;20369;-62
2022/01/23 15:15:46;;;;;;;448.03;427.37;;;8.30;99.90;;;;;;4413696;32;20538;-63
2022/01/23 15:18:13;;;;;;;415.03;396.13;;;8.30;99.90;;;;;;4411818;32;20290;-64
2022/01/23 15:20:42;;;;;;;420.10;400.50;;;8.30;99.90;;;;;;4406688;32;20533;-62
2022/01/23 15:23:12;;;;;;;436.87;416.37;;;8.30;99.90;;;;;;4408612;32;20179;-63
2022/01/23 15:25:44;;;;;;;421.73;402.10;;;8.20;99.90;;;;;;4426155;32;20157;-64
2022/01/23 15:28:16;;;;;;;432.77;412.47;;;8.30;99.90;;;;;;4446796;32;20150;-62
2022/01/23 15:30:44;;;;;;;429.43;409.10;;;8.20;99.90;;;;;;4448416;32;20534;-62